Time;durP1;ratioP1;P1;durP2;ratioP2;P2;SDS_P1;SDS_P2;PMS_P1;PMS_P2;Temp;Humidity;BMP_temperature;BMP_pressure;BME280_temperature;BME280_humidity;BME280_pressure;Samples;Min_cycle;Max_cycle;Signal;HPM_P1;HPM_P2
2022/08/25 00:01:57;;;;;;;13.85;12.38;;;22.50;99.90;;;;;;4990124;28;20226;-80
2022/08/25 00:04:24;;;;;;;17.65;15.20;;;22.40;99.90;;;;;;4991493;28;20231;-82
2022/08/25 00:06:54;;;;;;;20.95;16.45;;;22.40;99.90;;;;;;4991079;28;20229;-80
2022/08/25 00:09:26;;;;;;;17.63;15.70;;;22.30;99.90;;;;;;4991937;28;20645;-80
2022/08/25 00:11:54;;;;;;;18.88;16.77;;;22.30;99.90;;;;;;4992903;28;20619;-81
2022/08/25 00:14:25;;;;;;;18.00;16.10;;;22.30;99.90;;;;;;4992866;28;20203;-82
2022/08/25 00:16:56;;;;;;;19.83;16.55;;;22.20;99.90;;;;;;4992176;28;20769;-80
2022/08/25 00:19:27;;;;;;;22.70;17.10;;;22.30;99.90;;;;;;4999074;28;20218;-81
2022/08/25 00:21:55;;;;;;;21.33;18.67;;;22.20;99.90;;;;;;4992004;28;20203;-81
2022/08/25 00:24:25;;;;;;;22.20;18.50;;;22.20;99.90;;;;;;4989523;28;20211;-80
2022/08/25 00:26:55;;;;;;;17.23;15.40;;;22.20;99.90;;;;;;4993142;28;20203;-81
2022/08/25 00:29:25;;;;;;;22.48;18.35;;;22.20;99.90;;;;;;4996192;28;20631;-80
2022/08/25 00:31:53;;;;;;;22.30;18.70;;;22.20;99.90;;;;;;4990789;28;20741;-81
2022/08/25 00:34:26;;;;;;;23.20;19.08;;;22.20;99.90;;;;;;4989686;28;20231;-81
2022/08/25 00:36:53;;;;;;;16.50;14.73;;;22.20;99.90;;;;;;4990577;28;20214;-81
2022/08/25 00:39:23;;;;;;;18.25;16.42;;;22.20;99.90;;;;;;4990418;28;20234;-80
2022/08/25 00:41:55;;;;;;;19.80;17.80;;;22.20;99.90;;;;;;4991242;28;20206;-80
2022/08/25 00:44:43;;;;;;;24.65;17.33;;;22.20;99.90;;;;;;4990625;28;20690;-81
2022/08/25 00:47:11;;;;;;;21.05;18.10;;;22.20;99.90;;;;;;4990324;28;20234;-80
2022/08/25 00:49:43;;;;;;;21.77;17.77;;;22.20;99.90;;;;;;4990952;28;20314;-81
2022/08/25 00:52:19;;;;;;;19.60;17.13;;;22.20;99.90;;;;;;4989498;28;20250;-80
2022/08/25 00:54:58;;;;;;;19.85;17.30;;;22.20;99.90;;;;;;4988750;28;20715;-80
2022/08/25 00:57:45;;;;;;;21.65;17.25;;;22.20;99.90;;;;;;4990340;28;20246;-81
2022/08/25 01:00:18;;;;;;;21.00;18.88;;;22.10;99.90;;;;;;4989763;28;20206;-81
2022/08/25 01:02:45;;;;;;;18.50;16.77;;;22.10;99.90;;;;;;4989489;28;20269;-80
2022/08/25 01:05:13;;;;;;;18.10;16.20;;;22.10;99.90;;;;;;4989382;28;20214;-81
2022/08/25 01:07:42;;;;;;;19.05;17.08;;;22.10;99.90;;;;;;4990114;28;20253;-82
2022/08/25 01:10:12;;;;;;;17.77;15.77;;;22.10;99.90;;;;;;4989988;28;20210;-81
2022/08/25 01:12:39;;;;;;;20.95;18.10;;;22.10;99.90;;;;;;4991504;28;20219;-81
2022/08/25 01:15:09;;;;;;;20.33;17.42;;;22.10;99.90;;;;;;4988294;28;20644;-79
2022/08/25 01:17:52;;;;;;;21.08;18.13;;;22.10;99.90;;;;;;4988427;28;20230;-80
2022/08/25 01:20:22;;;;;;;21.00;18.67;;;22.10;99.90;;;;;;4974776;28;20218;-79
2022/08/25 01:22:55;;;;;;;21.55;19.17;;;22.00;99.90;;;;;;4984256;28;20191;-80
2022/08/25 01:25:41;;;;;;;23.60;19.55;;;22.00;99.90;;;;;;4988708;28;20219;-81
2022/08/25 01:28:08;;;;;;;19.05;17.08;;;21.90;99.90;;;;;;4988954;28;20215;-83
2022/08/25 01:30:36;;;;;;;21.52;19.23;;;21.90;99.90;;;;;;4988807;28;20235;-81
2022/08/25 01:33:04;;;;;;;19.33;17.33;;;21.80;99.90;;;;;;4987492;28;20207;-80
2022/08/25 01:35:32;;;;;;;23.60;21.08;;;21.80;99.90;;;;;;4987038;28;20226;-80
2022/08/25 01:38:00;;;;;;;23.00;18.95;;;21.70;99.90;;;;;;4988120;28;21052;-80
2022/08/25 01:40:27;;;;;;;27.45;20.95;;;21.70;99.90;;;;;;4988611;28;20297;-80
2022/08/25 01:43:30;;;;;;;23.98;20.63;;;21.60;99.90;;;;;;4989603;28;20235;-81
2022/08/25 01:45:57;;;;;;;23.38;19.83;;;21.60;99.90;;;;;;4983422;28;20210;-81
2022/08/25 01:48:25;;;;;;;25.95;21.70;;;21.50;99.90;;;;;;4972723;28;20223;-80
2022/08/25 01:50:53;;;;;;;22.45;18.27;;;21.40;99.90;;;;;;4997061;28;20250;-80
2022/08/25 01:53:29;;;;;;;21.70;19.38;;;21.40;99.90;;;;;;4995944;28;20211;-79
2022/08/25 01:56:06;;;;;;;21.13;18.52;;;21.30;99.90;;;;;;4993996;28;20321;-80
2022/08/25 01:58:38;;;;;;;21.30;18.70;;;21.30;99.90;;;;;;4980633;28;20322;-81
2022/08/25 02:01:10;;;;;;;21.15;17.20;;;21.20;99.90;;;;;;4992268;28;20199;-80
2022/08/25 02:03:39;;;;;;;20.35;18.20;;;21.20;99.90;;;;;;4992484;28;20219;-81
2022/08/25 02:06:11;;;;;;;20.20;18.00;;;21.20;99.90;;;;;;4993077;28;20740;-79
2022/08/25 02:08:39;;;;;;;20.60;17.75;;;21.10;99.90;;;;;;4993517;28;20207;-80
2022/08/25 02:11:11;;;;;;;15.55;13.95;;;21.10;99.90;;;;;;4995421;28;20199;-81
2022/08/25 02:13:40;;;;;;;22.58;19.17;;;21.10;99.90;;;;;;4994733;28;20215;-81
2022/08/25 02:16:13;;;;;;;20.67;18.58;;;21.10;99.90;;;;;;4993062;28;20207;-80
2022/08/25 02:18:40;;;;;;;20.85;18.67;;;21.10;99.90;;;;;;4994352;28;20227;-80
2022/08/25 02:21:07;;;;;;;18.55;16.63;;;21.10;99.90;;;;;;4993641;28;20291;-79
2022/08/25 02:23:34;;;;;;;18.85;16.33;;;21.00;99.90;;;;;;4994672;28;20211;-80
2022/08/25 02:26:02;;;;;;;20.20;18.08;;;21.00;99.90;;;;;;4997206;28;20894;-81
2022/08/25 02:28:29;;;;;;;22.50;19.30;;;21.00;99.90;;;;;;5008700;28;20339;-81
2022/08/25 02:30:56;;;;;;;22.77;20.35;;;21.00;99.90;;;;;;4997474;28;20258;-80
2022/08/25 02:33:27;;;;;;;21.65;19.45;;;21.10;99.90;;;;;;4997089;28;20703;-81
2022/08/25 02:35:58;;;;;;;20.38;18.23;;;21.00;99.90;;;;;;4996546;28;20666;-81
2022/08/25 02:38:26;;;;;;;21.52;18.98;;;21.00;99.90;;;;;;4982830;28;20243;-79
2022/08/25 02:40:58;;;;;;;22.88;20.48;;;21.00;99.90;;;;;;4989349;28;20222;-80
2022/08/25 02:43:27;;;;;;;22.25;19.65;;;21.00;99.90;;;;;;4995761;28;20219;-79
2022/08/25 02:45:55;;;;;;;24.92;20.30;;;20.90;99.90;;;;;;4995961;28;20269;-80
2022/08/25 02:48:22;;;;;;;22.90;19.75;;;20.90;99.90;;;;;;4993841;28;20215;-78
2022/08/25 02:50:51;;;;;;;24.23;20.80;;;20.80;99.90;;;;;;4995707;28;20277;-81
2022/08/25 02:53:19;;;;;;;22.73;20.30;;;20.80;99.90;;;;;;4995808;28;20671;-81
2022/08/25 02:55:46;;;;;;;23.98;18.60;;;20.80;99.90;;;;;;4996076;28;20207;-80
2022/08/25 02:58:14;;;;;;;21.27;18.98;;;20.80;99.90;;;;;;4996117;28;20251;-81
2022/08/25 03:00:41;;;;;;;21.73;18.48;;;20.70;99.90;;;;;;4996124;28;20785;-78
2022/08/25 03:03:08;;;;;;;19.95;17.70;;;20.70;99.90;;;;;;4996096;28;20256;-80
2022/08/25 03:05:37;;;;;;;20.70;17.00;;;20.70;99.90;;;;;;4996552;28;20297;-81
2022/08/25 03:08:06;;;;;;;21.02;17.52;;;20.60;99.90;;;;;;4997004;28;20692;-82
2022/08/25 03:10:34;;;;;;;21.88;19.55;;;20.60;99.90;;;;;;4996524;28;20690;-81
2022/08/25 03:13:06;;;;;;;22.42;19.90;;;20.60;99.90;;;;;;4983488;28;20207;-80
2022/08/25 03:15:36;;;;;;;18.98;16.98;;;20.60;99.90;;;;;;4997118;28;20282;-80
2022/08/25 03:18:04;;;;;;;19.95;18.00;;;20.60;99.90;;;;;;4999405;28;20227;-81
2022/08/25 03:20:34;;;;;;;20.83;18.30;;;20.50;99.90;;;;;;5006761;28;20230;-78
2022/08/25 03:23:03;;;;;;;20.75;18.65;;;20.50;99.90;;;;;;4997827;28;20660;-80
2022/08/25 03:28:17;;;;;;;22.95;19.70;;;20.50;99.90;;;;;;4996937;28;20920;-81
2022/08/25 03:30:46;;;;;;;22.35;19.95;;;20.40;99.90;;;;;;4998632;28;20727;-80
2022/08/25 03:33:21;;;;;;;24.08;19.67;;;20.40;99.90;;;;;;5002570;28;20253;-80
2022/08/25 03:35:48;;;;;;;23.75;20.30;;;20.40;99.90;;;;;;4996621;28;20335;-80
2022/08/25 03:38:15;;;;;;;24.52;21.45;;;20.30;99.90;;;;;;4993585;28;20317;-81
2022/08/25 03:40:43;;;;;;;22.13;19.85;;;20.20;99.90;;;;;;4994523;28;20214;-81
2022/08/25 03:43:12;;;;;;;20.85;18.60;;;20.30;99.90;;;;;;4992237;28;20207;-81
2022/08/25 03:45:41;;;;;;;22.70;20.35;;;20.20;99.90;;;;;;4994176;28;20207;-81
2022/08/25 03:48:09;;;;;;;22.52;20.13;;;20.20;99.90;;;;;;5000454;28;20215;-81
2022/08/25 03:50:36;;;;;;;20.35;18.13;;;20.10;99.90;;;;;;4995122;28;20238;-81
2022/08/25 03:53:03;;;;;;;18.33;16.52;;;20.10;99.90;;;;;;4990411;28;20223;-80
2022/08/25 03:55:30;;;;;;;19.55;16.25;;;20.10;99.90;;;;;;4991392;28;20914;-81
2022/08/25 03:57:58;;;;;;;20.30;16.92;;;20.00;99.90;;;;;;4991670;28;20226;-81
2022/08/25 04:00:26;;;;;;;18.58;16.63;;;19.90;99.90;;;;;;4991527;28;20647;-81
2022/08/25 04:02:53;;;;;;;19.42;17.10;;;19.90;99.90;;;;;;4991497;28;20277;-81
2022/08/25 04:05:20;;;;;;;18.75;16.85;;;19.80;99.90;;;;;;4992025;28;20223;-80
2022/08/25 04:07:46;;;;;;;18.75;16.85;;;19.80;99.90;;;;;;4992943;28;20207;-80
2022/08/25 04:10:14;;;;;;;19.83;17.67;;;19.70;99.90;;;;;;4993172;28;20211;-83
2022/08/25 04:12:40;;;;;;;20.30;18.20;;;19.70;99.90;;;;;;4992421;28;20888;-79
2022/08/25 04:15:09;;;;;;;19.42;17.42;;;19.60;99.90;;;;;;4989666;28;20237;-81
2022/08/25 04:17:38;;;;;;;19.90;16.27;;;19.60;99.90;;;;;;4990909;28;20279;-81
2022/08/25 04:20:09;;;;;;;19.08;15.95;;;19.50;99.90;;;;;;4992880;28;20227;-80
2022/08/25 04:22:39;;;;;;;19.08;17.08;;;19.50;99.90;;;;;;4991577;28;20211;-81
2022/08/25 04:25:11;;;;;;;25.63;18.40;;;19.50;99.90;;;;;;4992277;28;20266;-81
2022/08/25 04:27:38;;;;;;;19.20;17.20;;;19.50;99.90;;;;;;4992061;28;20199;-81
2022/08/25 04:30:06;;;;;;;21.95;17.48;;;19.50;99.90;;;;;;4990659;28;20211;-81
2022/08/25 04:32:35;;;;;;;18.55;15.63;;;19.50;99.90;;;;;;4991493;28;20199;-79
2022/08/25 04:35:03;;;;;;;20.13;17.20;;;19.40;99.90;;;;;;4991535;28;20228;-80
2022/08/25 04:37:30;;;;;;;21.02;17.88;;;19.40;99.90;;;;;;4990976;28;20226;-80
2022/08/25 04:40:09;;;;;;;21.52;16.85;;;19.40;99.90;;;;;;5008075;23;20273;-85
2022/08/25 04:42:39;;;;;;;19.35;16.77;;;19.50;99.90;;;;;;4991533;28;20202;-83
2022/08/25 04:45:06;;;;;;;17.48;15.43;;;19.40;99.90;;;;;;4996051;28;20218;-83
2022/08/25 04:47:38;;;;;;;18.05;16.23;;;19.30;99.90;;;;;;4994817;28;20233;-83
2022/08/25 04:50:07;;;;;;;22.13;18.45;;;19.40;99.90;;;;;;4995242;28;20237;-82
2022/08/25 04:52:38;;;;;;;20.80;17.60;;;19.30;99.90;;;;;;4996410;28;20210;-95
2022/08/25 04:55:06;;;;;;;19.73;17.63;;;19.30;99.90;;;;;;4995585;28;20214;-84
2022/08/25 04:57:33;;;;;;;19.92;17.67;;;19.30;99.90;;;;;;4997162;28;20721;-83
2022/08/25 05:00:11;;;;;;;20.88;17.05;;;19.30;99.90;;;;;;4998333;28;20261;-83
2022/08/25 05:02:44;;;;;;;18.63;16.60;;;19.30;99.90;;;;;;5021860;28;20257;-83
2022/08/25 05:05:13;;;;;;;20.25;15.85;;;19.30;99.90;;;;;;5011834;28;20985;-82
2022/08/25 05:07:40;;;;;;;19.00;16.85;;;19.40;99.90;;;;;;4995560;28;20252;-82
2022/08/25 05:10:08;;;;;;;17.48;15.48;;;19.40;99.90;;;;;;5013295;28;20237;-82
2022/08/25 05:12:35;;;;;;;18.30;16.33;;;19.50;99.90;;;;;;4995983;28;20218;-84
2022/08/25 05:15:49;;;;;;;18.45;16.58;;;19.50;99.90;;;;;;4996728;28;20245;-81
2022/08/25 05:17:50;;;;;;;17.77;15.52;;;19.50;99.90;;;;;;5017726;28;20210;-82
2022/08/25 05:20:22;;;;;;;19.13;17.13;;;19.50;99.90;;;;;;5018854;28;20226;-83
2022/08/25 05:22:49;;;;;;;21.35;16.98;;;19.50;99.90;;;;;;4990476;28;20207;-87
2022/08/25 05:25:19;;;;;;;20.38;18.27;;;19.50;99.90;;;;;;5028091;28;20206;-86
2022/08/25 05:27:51;;;;;;;19.67;17.65;;;19.60;99.90;;;;;;5010151;28;20186;-84
2022/08/25 05:30:21;;;;;;;21.35;17.33;;;19.60;99.90;;;;;;5012264;28;20260;-85
2022/08/25 05:32:49;;;;;;;17.88;15.70;;;19.60;99.90;;;;;;5024239;28;21823;-82
2022/08/25 05:35:28;;;;;;;17.50;13.82;;;19.70;99.90;;;;;;5011221;28;20215;-85
2022/08/25 05:38:06;;;;;;;18.10;14.52;;;19.70;99.90;;;;;;5029144;28;20198;-84
2022/08/25 05:40:41;;;;;;;17.98;14.13;;;19.80;99.90;;;;;;5006801;28;20235;-83
2022/08/25 05:43:14;;;;;;;15.13;13.55;;;19.80;99.90;;;;;;4996876;28;20184;-83
2022/08/25 05:45:41;;;;;;;16.80;13.60;;;20.10;99.90;;;;;;4987684;28;20207;-85
2022/08/25 05:48:14;;;;;;;16.98;13.10;;;19.90;99.90;;;;;;4987292;28;20208;-84
2022/08/25 05:50:52;;;;;;;13.68;10.60;;;20.00;99.90;;;;;;4979810;28;20196;-84
2022/08/25 05:53:21;;;;;;;14.30;11.20;;;20.00;99.90;;;;;;4977285;28;20206;-84
2022/08/25 05:55:51;;;;;;;11.65;10.25;;;20.10;99.90;;;;;;4979231;28;20580;-84
2022/08/25 05:58:20;;;;;;;14.20;10.98;;;20.20;99.90;;;;;;4979268;28;20192;-83
2022/08/25 06:00:48;;;;;;;12.07;10.88;;;20.20;99.90;;;;;;4981440;28;20222;-86
2022/08/25 06:03:17;;;;;;;16.70;10.48;;;20.30;99.90;;;;;;4978027;28;20951;-85
2022/08/25 06:05:45;;;;;;;12.70;9.55;;;20.30;99.90;;;;;;4978468;28;20199;-85
2022/08/25 06:08:15;;;;;;;11.00;9.77;;;20.40;99.90;;;;;;4978726;28;20200;-84
2022/08/25 06:10:50;;;;;;;11.25;8.90;;;20.50;99.90;;;;;;4984844;28;20214;-85
2022/08/25 06:13:17;;;;;;;11.07;9.15;;;20.50;99.90;;;;;;4975567;28;20210;-83
2022/08/25 06:15:59;;;;;;;11.68;9.18;;;20.60;99.90;;;;;;4977586;28;20204;-83
2022/08/25 06:18:29;;;;;;;10.48;9.43;;;20.70;99.90;;;;;;4975943;28;20247;-83
2022/08/25 06:20:57;;;;;;;14.45;9.55;;;20.70;99.90;;;;;;4977872;28;20220;-83
2022/08/25 06:23:24;;;;;;;11.50;8.13;;;21.10;99.90;;;;;;4975755;28;20219;-83
2022/08/25 06:25:55;;;;;;;10.38;8.05;;;22.70;99.90;;;;;;4979619;28;20228;-83
2022/08/25 06:28:25;;;;;;;10.23;7.40;;;23.10;99.90;;;;;;4972596;28;20207;-85
2022/08/25 06:30:58;;;;;;;8.13;6.72;;;24.30;99.90;;;;;;4980945;28;20200;-86
2022/08/25 06:33:27;;;;;;;7.90;6.85;;;25.50;99.90;;;;;;4978019;28;20230;-85
2022/08/25 06:35:56;;;;;;;7.93;6.32;;;26.50;99.90;;;;;;4979986;28;20639;-85
2022/08/25 06:38:24;;;;;;;10.00;6.70;;;27.40;99.90;;;;;;4980901;28;20246;-86
2022/08/25 06:40:55;;;;;;;8.50;6.68;;;28.10;99.90;;;;;;4996255;28;20295;-84
2022/08/25 06:43:23;;;;;;;7.93;6.28;;;28.90;99.90;;;;;;5014797;28;20690;-86
2022/08/25 06:45:50;;;;;;;7.68;5.85;;;29.50;99.90;;;;;;5001355;28;20290;-83
2022/08/25 06:48:17;;;;;;;11.55;6.97;;;30.00;99.90;;;;;;5001136;28;20207;-85
2022/08/25 06:50:45;;;;;;;10.45;6.20;;;30.70;99.90;;;;;;5019115;28;20198;-84
2022/08/25 06:53:23;;;;;;;8.20;6.30;;;31.30;99.90;;;;;;5009228;28;20928;-89
2022/08/25 06:55:57;;;;;;;7.70;6.60;;;31.90;99.90;;;;;;5020437;28;20281;-88
2022/08/25 06:58:41;;;;;;;10.88;5.13;;;32.50;99.90;;;;;;5013647;28;20187;-89
2022/08/25 07:01:29;;;;;;;;;;;;;;;;;;;;;
2022/08/25 07:04:13;;;;;;;7.63;5.35;;;33.10;98.50;;;;;;5029131;28;20286;-88
2022/08/25 07:06:44;;;;;;;13.98;5.38;;;33.30;97.70;;;;;;5018916;28;20225;-88
2022/08/25 07:09:25;;;;;;;5.82;5.18;;;33.60;96.10;;;;;;5006378;28;20553;-88
2022/08/25 07:12:01;;;;;;;7.47;5.30;;;33.90;94.70;;;;;;5005411;28;20275;-89
2022/08/25 07:14:40;;;;;;;6.45;5.40;;;34.00;93.80;;;;;;5006305;28;20198;-87
2022/08/25 07:18:05;;;;;;;;;;;;;;;;;;;;;
2022/08/25 07:20:55;;;;;;;6.40;4.40;;;34.50;93.00;;;;;;5021653;28;20237;-88
2022/08/25 07:23:31;;;;;;;9.65;4.43;;;34.60;91.80;;;;;;5004766;28;20206;-89
2022/08/25 07:26:15;;;;;;;10.13;5.22;;;34.70;90.40;;;;;;5008891;28;20210;-88
2022/08/25 07:29:11;;;;;;;7.47;4.57;;;34.60;90.20;;;;;;5008299;28;20220;-88
2022/08/25 07:31:55;;;;;;;8.63;4.40;;;34.60;90.20;;;;;;5003932;28;20260;-88
2022/08/25 07:38:00;;;;;;;10.07;4.20;;;34.80;87.30;;;;;;5022981;28;20556;-87
2022/08/25 07:43:51;;;;;;;9.00;4.00;;;34.70;86.30;;;;;;4976082;28;20211;-86
2022/08/25 07:46:35;;;;;;;6.90;4.03;;;34.80;85.30;;;;;;4982016;28;20293;-88
2022/08/25 07:49:29;;;;;;;8.18;3.85;;;34.80;84.40;;;;;;4983511;28;20235;-88
2022/08/25 07:53:05;;;;;;;8.32;3.90;;;34.90;84.80;;;;;;4963711;28;20231;-92
2022/08/25 07:55:56;;;;;;;4.18;3.70;;;35.00;83.00;;;;;;4960582;28;20204;-93
2022/08/25 07:59:15;;;;;;;;;;;;;;;;;;;;;
2022/08/25 08:06:44;;;;;;;6.00;4.35;;;34.80;81.70;;;;;;4972217;28;20203;-91
2022/08/25 08:10:10;;;;;;;;;;;;;;;;;;;;;
2022/08/25 08:12:59;;;;;;;6.03;3.40;;;34.80;80.20;;;;;;4961796;28;20200;-90
2022/08/25 08:15:41;;;;;;;5.18;3.90;;;34.90;80.60;;;;;;4984138;28;20207;-91
2022/08/25 08:18:33;;;;;;;6.28;3.22;;;34.90;80.20;;;;;;4984681;28;20195;-88
2022/08/25 08:21:28;;;;;;;6.43;4.22;;;35.00;79.30;;;;;;4973341;28;20238;-90
2022/08/25 08:24:04;;;;;;;7.35;3.65;;;34.90;78.70;;;;;;4980949;28;20992;-89
2022/08/25 08:27:25;;;;;;;6.00;3.80;;;35.00;78.20;;;;;;4980499;28;20239;-90
2022/08/25 08:30:00;;;;;;;7.88;3.92;;;35.00;76.90;;;;;;4951390;28;20275;-90
2022/08/25 08:32:32;;;;;;;6.82;3.75;;;34.70;77.40;;;;;;4978667;28;20200;-88
2022/08/25 08:35:30;;;;;;;4.75;3.80;;;34.80;77.20;;;;;;4979347;28;20239;-90
2022/08/25 08:38:02;;;;;;;5.53;3.50;;;34.70;77.30;;;;;;4979444;28;20211;-91
2022/08/25 08:42:15;;;;;;;5.45;3.70;;;34.60;77.60;;;;;;4977871;28;20231;-89
2022/08/25 08:43:41;;;;;;;5.43;4.10;;;34.50;77.70;;;;;;4979167;28;20230;-90
2022/08/25 08:46:21;;;;;;;9.45;3.95;;;34.40;77.90;;;;;;4979988;28;20203;-91
2022/08/25 08:49:05;;;;;;;7.95;3.60;;;34.60;77.90;;;;;;4978290;28;20661;-91
2022/08/25 08:51:50;;;;;;;5.53;3.60;;;34.60;78.10;;;;;;4978321;28;20210;-89
2022/08/25 08:54:29;;;;;;;6.28;3.90;;;34.70;77.10;;;;;;4978080;28;20290;-90
2022/08/25 08:57:40;;;;;;;5.93;4.13;;;34.70;77.50;;;;;;4980275;28;20212;-90
2022/08/25 09:00:36;;;;;;;4.72;3.28;;;34.80;77.50;;;;;;4984073;28;20204;-90
2022/08/25 09:03:26;;;;;;;8.25;3.80;;;34.70;76.60;;;;;;4983708;28;20211;-90
2022/08/25 09:06:32;;;;;;;5.78;3.30;;;34.70;76.90;;;;;;4984500;28;20188;-88
2022/08/25 09:09:07;;;;;;;6.50;3.53;;;34.60;78.10;;;;;;4983186;28;20207;-88
2022/08/25 09:11:48;;;;;;;6.90;3.85;;;34.70;77.90;;;;;;4983720;28;20207;-90
2022/08/25 09:14:55;;;;;;;4.57;3.50;;;34.70;77.10;;;;;;4983218;28;20195;-90
2022/08/25 09:17:42;;;;;;;6.28;3.70;;;34.70;77.70;;;;;;4983612;28;20203;-88
2022/08/25 09:20:33;;;;;;;5.07;3.72;;;34.60;78.00;;;;;;4981337;28;20259;-89
2022/08/25 09:23:32;;;;;;;5.70;3.95;;;34.60;77.80;;;;;;4985390;28;20192;-89
2022/08/25 09:26:37;;;;;;;4.85;3.63;;;34.60;76.80;;;;;;4993333;28;20187;-88
2022/08/25 09:29:18;;;;;;;7.40;3.88;;;34.50;77.30;;;;;;5001808;28;20198;-89
2022/08/25 09:31:47;;;;;;;6.18;4.22;;;34.50;77.20;;;;;;4986978;23;20300;-81
2022/08/25 09:34:27;;;;;;;7.35;3.70;;;34.40;76.90;;;;;;4971354;28;20220;-80
2022/08/25 09:36:54;;;;;;;6.70;3.80;;;34.20;77.10;;;;;;4955030;28;20676;-78
2022/08/25 09:39:22;;;;;;;7.10;3.53;;;34.10;77.70;;;;;;4972236;28;20212;-80
2022/08/25 09:41:52;;;;;;;5.88;3.53;;;34.10;76.60;;;;;;4972325;28;20212;-81
2022/08/25 09:44:29;;;;;;;11.13;3.83;;;34.10;76.40;;;;;;4971974;28;20262;-80
2022/08/25 09:47:16;;;;;;;5.22;3.58;;;34.10;76.40;;;;;;4946737;28;20583;-80
2022/08/25 09:49:59;;;;;;;5.75;3.50;;;33.90;76.40;;;;;;4969372;28;20350;-81
2022/08/25 09:52:33;;;;;;;5.82;3.28;;;33.90;76.60;;;;;;4964201;28;20211;-79
2022/08/25 09:55:12;;;;;;;7.75;3.50;;;33.80;75.50;;;;;;4971367;28;20211;-79
2022/08/25 09:57:43;;;;;;;7.20;3.42;;;33.70;75.20;;;;;;4966706;28;20204;-80
2022/08/25 10:00:21;;;;;;;4.85;3.50;;;33.70;74.90;;;;;;4970988;28;20210;-81
2022/08/25 10:03:14;;;;;;;7.03;3.95;;;33.70;74.60;;;;;;4971400;28;20303;-81
2022/08/25 10:05:58;;;;;;;5.85;3.30;;;33.70;74.60;;;;;;4966667;28;20314;-80
2022/08/25 10:08:39;;;;;;;5.20;3.50;;;33.80;74.00;;;;;;4967217;28;20203;-79
2022/08/25 10:11:11;;;;;;;5.03;3.42;;;33.80;74.00;;;;;;4970414;28;20318;-80
2022/08/25 10:13:46;;;;;;;5.13;3.33;;;33.80;74.40;;;;;;4972746;28;20236;-80
2022/08/25 10:16:23;;;;;;;7.65;3.13;;;33.90;72.80;;;;;;4971632;28;20647;-78
2022/08/25 10:19:01;;;;;;;8.50;3.50;;;33.90;71.50;;;;;;4977421;28;20225;-80
2022/08/25 10:21:28;;;;;;;5.18;2.90;;;34.00;71.70;;;;;;4971289;28;20199;-79
2022/08/25 10:23:55;;;;;;;5.82;3.00;;;33.80;70.90;;;;;;4971869;28;20554;-78
2022/08/25 10:26:48;;;;;;;5.97;3.15;;;33.80;70.70;;;;;;4970265;28;20204;-81
2022/08/25 10:29:45;;;;;;;6.22;3.00;;;33.90;70.70;;;;;;4931756;28;20211;-79
2022/08/25 10:32:23;;;;;;;8.55;3.08;;;33.90;70.30;;;;;;4974275;28;20224;-78
2022/08/25 10:34:55;;;;;;;6.63;3.25;;;33.90;70.70;;;;;;4985022;28;20329;-78
2022/08/25 10:37:30;;;;;;;2.80;2.50;;;33.90;70.20;;;;;;4990770;28;20218;-78
2022/08/25 10:40:14;;;;;;;3.58;2.58;;;33.90;67.40;;;;;;4989751;28;20207;-79
2022/08/25 10:43:17;;;;;;;2.67;2.45;;;33.80;66.80;;;;;;4990120;28;20195;-79
2022/08/25 10:45:59;;;;;;;2.22;1.98;;;33.80;66.60;;;;;;4986695;28;20297;-79
2022/08/25 10:48:55;;;;;;;2.30;2.10;;;33.80;64.90;;;;;;4990094;28;20222;-80
2022/08/25 10:51:45;;;;;;;3.38;2.00;;;33.90;63.80;;;;;;4973694;28;20238;-80
2022/08/25 10:54:36;;;;;;;4.25;2.42;;;34.00;63.10;;;;;;4974782;28;20223;-82
2022/08/25 10:57:29;;;;;;;5.28;2.53;;;34.00;63.70;;;;;;4973090;28;20291;-80
2022/08/25 11:00:12;;;;;;;3.83;2.30;;;34.10;64.80;;;;;;4991703;28;20257;-79
2022/08/25 11:02:47;;;;;;;3.80;2.50;;;34.20;64.60;;;;;;4973806;28;20219;-80
2022/08/25 11:05:29;;;;;;;4.28;2.25;;;34.30;64.70;;;;;;4985806;28;20239;-80
2022/08/25 11:08:18;;;;;;;5.82;3.03;;;34.40;63.40;;;;;;4954127;28;20703;-79
2022/08/25 11:10:51;;;;;;;3.50;2.40;;;34.50;64.50;;;;;;4956076;28;20270;-78
2022/08/25 11:13:29;;;;;;;4.82;2.08;;;34.60;64.10;;;;;;4970608;28;20520;-78
2022/08/25 11:16:30;;;;;;;4.95;2.38;;;34.70;63.00;;;;;;4953550;28;20211;-79
2022/08/25 11:19:05;;;;;;;5.25;2.70;;;34.60;62.40;;;;;;4948483;28;20224;-80
2022/08/25 11:21:50;;;;;;;3.70;3.03;;;34.40;63.20;;;;;;4952057;28;20615;-79
2022/08/25 11:24:33;;;;;;;5.10;2.53;;;34.40;63.90;;;;;;4971353;28;20706;-78
2022/08/25 11:27:07;;;;;;;3.17;2.40;;;34.50;63.20;;;;;;4974271;28;20203;-80
2022/08/25 11:29:42;;;;;;;4.60;2.50;;;34.50;62.70;;;;;;4974981;28;20281;-79
2022/08/25 11:32:10;;;;;;;5.30;2.72;;;34.50;62.40;;;;;;4963540;28;20256;-78
2022/08/25 11:34:37;;;;;;;3.85;2.78;;;34.60;62.60;;;;;;4957526;28;20221;-78
2022/08/25 11:37:25;;;;;;;4.47;2.80;;;34.70;63.20;;;;;;4953332;29;20555;-77
2022/08/25 11:40:00;;;;;;;2.58;2.38;;;34.80;63.20;;;;;;4947908;28;20205;-79
2022/08/25 11:42:41;;;;;;;5.80;2.30;;;34.90;62.70;;;;;;4933469;28;20546;-78
2022/08/25 11:45:14;;;;;;;4.40;2.50;;;34.90;60.70;;;;;;4950846;28;20212;-79
2022/08/25 11:47:58;;;;;;;3.33;2.30;;;34.90;59.90;;;;;;4929723;29;20216;-78
2022/08/25 11:50:52;;;;;;;3.95;2.47;;;34.90;60.70;;;;;;4938384;28;20236;-79
2022/08/25 11:53:31;;;;;;;3.38;2.40;;;34.80;61.30;;;;;;4940687;28;20267;-78
2022/08/25 11:56:22;;;;;;;3.80;2.38;;;34.80;62.30;;;;;;4949551;28;20694;-77
2022/08/25 11:58:52;;;;;;;4.10;2.25;;;34.80;60.90;;;;;;4948419;28;20239;-80
2022/08/25 12:01:38;;;;;;;2.53;2.22;;;34.90;61.10;;;;;;4946428;28;20213;-76
2022/08/25 12:04:28;;;;;;;3.63;2.90;;;35.10;61.50;;;;;;4927782;29;20248;-79
2022/08/25 12:07:02;;;;;;;5.32;2.60;;;35.20;62.50;;;;;;4942943;28;20433;-78
2022/08/25 12:09:29;;;;;;;5.40;2.90;;;35.30;61.20;;;;;;4953788;28;20220;-78
2022/08/25 12:11:57;;;;;;;3.90;2.80;;;35.40;61.70;;;;;;4944707;28;20251;-77
2022/08/25 12:14:27;;;;;;;5.65;2.78;;;35.40;61.10;;;;;;4948563;28;20201;-77
2022/08/25 12:16:59;;;;;;;5.25;2.63;;;35.40;60.80;;;;;;4945659;28;20625;-76
2022/08/25 12:19:33;;;;;;;2.90;2.30;;;35.50;60.20;;;;;;4949395;28;20216;-77
2022/08/25 12:28:39;;;;;;;2.63;2.20;;;35.10;59.90;;;;;;5109281;27;20551;-78
2022/08/25 12:31:36;;;;;;;6.10;2.10;;;35.10;61.00;;;;;;5089780;28;20201;-75
2022/08/25 12:34:29;;;;;;;2.38;2.17;;;35.10;61.50;;;;;;5106249;28;20280;-77
2022/08/25 12:37:13;;;;;;;2.97;2.10;;;35.40;60.40;;;;;;5108810;28;20281;-78
2022/08/25 12:39:49;;;;;;;6.80;2.67;;;35.40;58.20;;;;;;5087527;28;20282;-77
2022/08/25 12:42:28;;;;;;;4.30;2.50;;;35.40;60.40;;;;;;5104662;28;20223;-78
2022/08/25 12:45:19;;;;;;;5.47;2.50;;;35.50;59.40;;;;;;5087001;28;20195;-76
2022/08/25 12:47:48;;;;;;;4.65;2.80;;;35.60;59.00;;;;;;5088122;28;20837;-78
2022/08/25 12:50:37;;;;;;;3.47;2.30;;;35.60;59.30;;;;;;5110035;28;20219;-82
2022/08/25 12:53:16;;;;;;;3.33;2.58;;;35.70;59.50;;;;;;5105933;28;20199;-81
2022/08/25 12:55:55;;;;;;;4.07;2.17;;;35.80;59.70;;;;;;5095780;28;20293;-81
2022/08/25 12:58:28;;;;;;;3.83;3.05;;;35.90;59.20;;;;;;5083746;28;20199;-78
2022/08/25 13:01:36;;;;;;;4.47;2.67;;;35.80;58.90;;;;;;5111344;28;20191;-80
2022/08/25 13:04:19;;;;;;;4.45;2.50;;;35.90;58.50;;;;;;5090222;28;20242;-81
2022/08/25 13:07:12;;;;;;;3.33;2.42;;;35.90;58.50;;;;;;5108705;28;20271;-79
2022/08/25 13:10:09;;;;;;;2.40;2.13;;;35.80;58.90;;;;;;5114116;27;20219;-76
2022/08/25 13:12:44;;;;;;;4.38;2.70;;;35.70;59.20;;;;;;5088121;28;20300;-78
2022/08/25 13:15:54;;;;;;;;;;;;;;;;;;;;;
2022/08/25 13:18:37;;;;;;;4.65;2.55;;;35.70;58.60;;;;;;5057514;28;20243;-81
2022/08/25 13:21:31;;;;;;;3.05;2.58;;;35.70;59.70;;;;;;5103951;28;20623;-81
2022/08/25 13:24:31;;;;;;;3.35;3.05;;;35.70;59.50;;;;;;5086714;28;20310;-81
2022/08/25 13:27:08;;;;;;;3.25;2.75;;;35.80;58.60;;;;;;5069945;28;20260;-80
2022/08/25 13:29:58;;;;;;;4.47;2.60;;;35.90;58.70;;;;;;5065384;28;20306;-79
2022/08/25 13:32:36;;;;;;;3.35;2.60;;;36.00;59.20;;;;;;5068021;28;20234;-78
2022/08/25 13:35:46;;;;;;;3.30;2.50;;;36.10;58.40;;;;;;5069428;28;20212;-80
2022/08/25 13:38:18;;;;;;;4.50;3.20;;;36.20;58.60;;;;;;5058329;28;20755;-81
2022/08/25 13:40:45;;;;;;;5.50;2.75;;;36.20;58.60;;;;;;5051833;28;20642;-80
2022/08/25 13:43:13;;;;;;;3.35;3.05;;;36.10;58.40;;;;;;5066147;28;20200;-80
2022/08/25 13:45:44;;;;;;;3.92;2.60;;;36.00;59.50;;;;;;5066804;28;20211;-81
2022/08/25 13:48:13;;;;;;;5.07;3.15;;;36.00;58.70;;;;;;5044869;28;20305;-83
2022/08/25 13:50:50;;;;;;;4.50;3.10;;;35.90;58.70;;;;;;5049212;28;20203;-78
2022/08/25 13:53:24;;;;;;;5.60;3.53;;;36.00;58.90;;;;;;5048882;28;20591;-81